• Join FlightAware (Why Join?)
  • Login
  • US Flag 
01:26AM EDT


 

Airport Tracker/Info


-or-


 

Live Flight TrackerFlight Track Log ✈ SWA2166 ✈ 09-Apr-2013 ✈ KMCO - KBHM

Flight Track Log - Related Links

Times and Time Zones

All times are in EDT time to prevent confusion due to time zone crossing. See the SWA2166 flight status page for this flight to view local times or setup timezone preferences in your user account.

Time Position Orientation Groundspeed Altitude Reporting Facility
EDT Latitude Longitude Course Direction KTS MPH feet Rate Location/Type
05:00PM 28.4167 -81.3000 204° Southwest 152 175 500  Level Orlando TRACON
05:01PM 28.3833 -81.3167 204° Southwest 217 250 2,500 2,700 Climbing Orlando TRACON
05:02PM 28.3500 -81.3667 233° Southwest 231 266 5,700 3,120 Climbing Orlando TRACON
05:03PM 28.3333 -81.4500 257° West 256 295 8,800 2,880 Climbing Orlando TRACON
05:04PM 28.3333 -81.5500 270° West 313 360 11,500 2,400 Climbing Orlando TRACON
05:07PM 28.3769 -81.8119 281° West 394 453 17,000 2,640 Climbing Jacksonville Center
05:08PM 28.3947 -81.9275 280° West 388 447 20,400 3,060 Climbing Jacksonville Center
05:09PM 28.4142 -82.0239 283° West 382 440 23,100 2,820 Climbing Jacksonville Center
05:10PM 28.4400 -82.1656 282° West 387 445 26,000 2,100 Climbing Jacksonville Center
05:11PM 28.4614 -82.2858 281° West 387 445 27,400 1,800 Climbing Jacksonville Center
05:12PM 28.4850 -82.4083 282° West 392 451 29,700 2,100 Climbing Jacksonville Center
05:13PM 28.5083 -82.5242 283° West 404 465 31,700 1,860 Climbing Jacksonville Center
05:14PM 28.5775 -82.6231 309° West 404 465 33,500 1,860 Climbing Jacksonville Center
05:15PM 28.6778 -82.6961 327° Northwest 404 465 35,400 1,800 Climbing Jacksonville Center
05:16PM 28.7717 -82.7717 325° Northwest 409 471 37,200 1,800 Climbing Jacksonville Center
05:17PM 28.8678 -82.8475 325° Northwest 419 482 39,000 1,380 Climbing Jacksonville Center
05:18PM 28.9617 -82.9233 325° Northwest 419 482 40,000 480 Climbing Jacksonville Center
05:19PM 29.0578 -82.9994 325° Northwest 419 482 40,000  Level Jacksonville Center
05:20PM 29.1517 -83.0733 326° Northwest 419 482 40,000  Level Jacksonville Center
05:21PM 29.2453 -83.1497 325° Northwest 419 482 40,000  Level Jacksonville Center
05:22PM 29.3392 -83.2236 326° Northwest 414 476 40,000  Level Jacksonville Center
05:23PM 29.4286 -83.2981 324° Northwest 409 471 40,000  Level Jacksonville Center
05:24PM 29.5225 -83.3747 325° Northwest 409 471 40,000  Level Jacksonville Center
05:25PM 29.6161 -83.4469 326° Northwest 409 471 40,000  Level Jacksonville Center
05:26PM 29.7097 -83.5239 324° Northwest 409 471 40,000  Level Jacksonville Center
05:27PM 29.8031 -83.5986 325° Northwest 409 471 40,000  Level Jacksonville Center
05:28PM 29.8967 -83.6761 324° Northwest 409 471 40,000  Level Jacksonville Center
05:29PM 29.9900 -83.7511 325° Northwest 409 471 40,000  Level Jacksonville Center
05:30PM 30.0836 -83.8264 325° Northwest 409 471 40,000  Level Jacksonville Center
05:31PM 30.1831 -83.9067 325° Northwest 404 465 40,000  Level Jacksonville Center
05:32PM 30.2744 -83.9844 324° Northwest 404 465 40,000  Level Jacksonville Center
05:33PM 30.3678 -84.0578 326° Northwest 404 465 40,000  Level Jacksonville Center
05:34PM 30.4567 -84.1336 324° Northwest 404 465 40,000  Level Jacksonville Center
05:35PM 30.5478 -84.2072 325° Northwest 404 465 40,000  Level Jacksonville Center
05:36PM 30.6286 -84.2736 325° Northwest 399 459 40,000  Level Jacksonville Center
05:37PM 30.7197 -84.3497 324° Northwest 404 465 40,000  Level Jacksonville Center
05:38PM 30.8125 -84.4286 324° Northwest 404 465 40,000  Level Jacksonville Center
05:39PM 30.9014 -84.5025 325° Northwest 404 465 40,000  Level Jacksonville Center
05:40PM 30.9925 -84.5792 324° Northwest 404 465 40,000  Level Jacksonville Center
05:41PM 31.0853 -84.6586 324° Northwest 404 465 40,000 -300 Level Jacksonville Center
05:42PM 31.1781 -84.7356 325° Northwest 404 465 39,500 -840 Descending Jacksonville Center
05:44PM 31.3847 -84.9097 324° Northwest 415 478 37,300 -1,020 Descending Atlanta Center
05:45PM 31.4758 -84.9861 324° Northwest 408 470 36,300 -960 Descending Atlanta Center
05:46PM 31.5669 -85.0625 324° Northwest 402 463 35,400 -900 Descending Atlanta Center
05:47PM 31.6667 -85.1442 325° Northwest 402 463 34,600 -1,020 Descending Atlanta Center
05:48PM 31.7639 -85.2258 324° Northwest 414 476 33,400 -1,080 Descending Atlanta Center
05:49PM 31.8611 -85.3103 324° Northwest 426 490 32,500 -960 Descending Atlanta Center
05:50PM 31.9606 -85.3950 324° Northwest 437 503 31,500 -1,020 Descending Atlanta Center
05:51PM 32.0597 -85.4800 324° Northwest 437 503 30,500 -1,020 Descending Atlanta Center
05:52PM 32.1567 -85.5647 324° Northwest 437 503 29,500 -1,020 Descending Atlanta Center
05:53PM 32.2539 -85.6475 324° Northwest 432 497 28,500 -1,080 Descending Atlanta Center
05:54PM 32.3467 -85.7278 324° Northwest 426 490 27,400 -1,020 Descending Atlanta Center
05:55PM 32.4372 -85.8133 321° Northwest 421 484 26,500 -960 Descending Atlanta Center
05:56PM 32.5300 -85.8892 325° Northwest 415 478 25,500 -1,320 Descending Atlanta Center
05:57PM 32.6208 -85.9650 325° Northwest 409 471 23,900 -1,800 Descending Atlanta Center
05:58PM 32.7050 -86.0408 323° Northwest 398 458 21,900 -1,500 Descending Atlanta Center
05:59PM 32.7894 -86.1169 323° Northwest 393 452 20,900 -1,080 Descending Atlanta Center
06:00PM 32.8758 -86.1931 324° Northwest 387 445 19,800 -1,380 Descending Atlanta Center
06:00PM 32.8983 -86.2183 317° Northwest 376 433 19,100 -2,040 Descending Atlanta Center
06:01PM 32.9581 -86.2644 327° Northwest 382 440 17,800 -2,100 Descending Atlanta Center
06:02PM 33.0381 -86.3333 324° Northwest 371 427 15,600 -2,220 Descending Atlanta Center
06:03PM 33.1161 -86.4050 322° Northwest 361 415 13,400 -2,160 Descending Atlanta Center
06:04PM 33.1919 -86.4714 324° Northwest 356 410 11,300 -1,680 Descending Atlanta Center
06:05PM 33.2639 -86.5356 323° Northwest 342 394 10,100 -1,200 Descending Atlanta Center
06:06PM 33.3233 -86.5869 324° Northwest 313 360 8,900 -1,440 Descending Atlanta Center
06:07PM 33.4067 -86.5919 357° North 283 326 7,300 -1,740 Descending Atlanta Center
06:08PM 33.4861 -86.5942 359° North 283 326 5,500 -1,560 Descending Atlanta Center
06:09PM 33.5839 -86.6022 356° North 267 307 4,100 -1,020 Descending Atlanta Center
06:10PM 33.6361 -86.6011 North 268 308 3,500 -720 Descending Atlanta Center
06:11PM 33.6433 -86.6514 280° West 144 166 2,800 -780 Descending Atlanta Center
06:12PM 33.6117 -86.6753 212° Southwest 132 152 2,000 -780 Descending Atlanta Center
06:13PM 33.5900 -86.7122 235° Southwest 138 159 1,300 -720 Descending Atlanta Center
06:15PM 33.5639 -86.7523 140° Southeast  Level Estimated
06:22PM 33.5639 -86.7523 140° Southeast  Level Estimated